Time,TemperatureF,DewpointF,PressureIn,WindDirection,WindDirectionDegrees,WindSpeedMPH,WindSpeedGustMPH,Humidity,HourlyPrecipIn,Conditions,Clouds,dailyrainin,SolarRadiationWatts/m^2,SoftwareType,DateUTC
2013-04-30 03:32:00,42.0,39.0,-100.00,ESE,113,6.0,11.0,90,-99.99,,,0.00,0.000000,,2013-04-30 08:32:00,
2013-04-30 03:42:00,42.0,39.0,-100.00,ESE,113,6.0,11.0,90,-99.99,,,0.00,0.000000,,2013-04-30 08:42:00,
2013-04-30 03:52:00,42.0,39.0,-100.00,ESE,113,6.0,11.0,90,-99.99,,,0.00,0.000000,,2013-04-30 08:52:00,
2013-04-30 04:01:00,42.0,39.0,-100.00,ESE,113,6.0,11.0,90,-99.99,,,0.00,0.000000,,2013-04-30 09:01:00,
2013-04-30 11:33:00,62.0,51.0,-100.00,SSW,208,6.0,15.0,68,-99.99,,,0.00,398.000000,,2013-04-30 16:33:00,
2013-04-30 11:42:00,62.0,51.0,-100.00,SSW,208,6.0,15.0,68,-99.99,,,0.00,398.000000,,2013-04-30 16:42:00,
2013-04-30 11:52:00,62.0,51.0,-100.00,SSW,208,6.0,15.0,68,-99.99,,,0.00,398.000000,,2013-04-30 16:52:00,
2013-04-30 12:02:00,62.0,51.0,-100.00,SSW,208,6.0,15.0,68,-99.99,,,0.00,398.000000,,2013-04-30 17:02:00,
2013-04-30 13:32:00,65.0,41.0,-100.00,West,268,10.0,19.0,42,-99.99,,,-99.99,543.000000,,2013-04-30 18:32:00,
2013-04-30 13:42:00,65.0,41.0,-100.00,West,268,10.0,19.0,42,-99.99,,,-99.99,543.000000,,2013-04-30 18:42:00,
2013-04-30 13:52:00,65.0,41.0,-100.00,West,268,10.0,19.0,42,-99.99,,,-99.99,543.000000,,2013-04-30 18:52:00,
2013-04-30 14:01:00,65.0,41.0,-100.00,West,268,10.0,19.0,42,-99.99,,,-99.99,543.000000,,2013-04-30 19:01:00,
2013-04-30 14:32:00,67.0,41.0,-100.00,WSW,255,11.0,24.0,39,0.00,,,-99.99,548.000000,,2013-04-30 19:32:00,
2013-04-30 14:42:00,67.0,41.0,-100.00,WSW,255,11.0,24.0,39,0.00,,,-99.99,548.000000,,2013-04-30 19:42:00,
2013-04-30 14:52:00,67.0,41.0,-100.00,WSW,255,11.0,24.0,39,0.00,,,-99.99,548.000000,,2013-04-30 19:52:00,
2013-04-30 15:02:00,67.0,41.0,-100.00,WSW,255,11.0,24.0,39,0.00,,,-99.99,548.000000,,2013-04-30 20:02:00,
2013-04-30 15:32:00,67.0,38.0,-100.00,WSW,253,12.0,23.0,35,0.00,,,0.00,557.000000,,2013-04-30 20:32:00,
2013-04-30 15:42:00,67.0,38.0,-100.00,WSW,253,12.0,23.0,35,0.00,,,0.00,557.000000,,2013-04-30 20:42:00,
2013-04-30 15:52:00,67.0,38.0,-100.00,WSW,253,12.0,23.0,35,0.00,,,0.00,557.000000,,2013-04-30 20:52:00,
2013-04-30 16:02:00,67.0,38.0,-100.00,WSW,253,12.0,23.0,35,0.00,,,0.00,557.000000,,2013-04-30 21:02:00,
2013-04-30 16:32:00,65.0,29.0,-100.00,WSW,250,14.0,26.0,26,0.00,,,-99.99,343.000000,,2013-04-30 21:32:00,
2013-04-30 16:42:00,65.0,29.0,-100.00,WSW,250,14.0,26.0,26,0.00,,,-99.99,343.000000,,2013-04-30 21:42:00,
2013-04-30 16:53:00,65.0,29.0,-100.00,WSW,250,14.0,26.0,26,0.00,,,-99.99,343.000000,,2013-04-30 21:53:00,
2013-04-30 17:02:00,65.0,29.0,-100.00,WSW,250,14.0,26.0,26,0.00,,,-99.99,343.000000,,2013-04-30 22:02:00,
2013-04-30 17:33:00,65.0,25.0,-100.00,WSW,249,12.0,23.0,22,0.00,,,0.00,274.000000,,2013-04-30 22:33:00,
2013-04-30 17:42:00,65.0,25.0,-100.00,WSW,249,12.0,23.0,22,0.00,,,0.00,274.000000,,2013-04-30 22:42:00,
2013-04-30 17:53:00,65.0,25.0,-100.00,WSW,249,12.0,23.0,22,0.00,,,0.00,274.000000,,2013-04-30 22:53:00,
2013-04-30 18:02:00,65.0,25.0,-100.00,WSW,249,12.0,23.0,22,0.00,,,0.00,274.000000,,2013-04-30 23:02:00,
2013-04-30 18:32:00,63.0,24.0,-100.00,WSW,248,8.0,24.0,22,0.00,,,0.00,134.000000,,2013-04-30 23:32:00,
2013-04-30 18:42:00,63.0,24.0,-100.00,WSW,248,8.0,24.0,22,0.00,,,0.00,134.000000,,2013-04-30 23:42:00,
2013-04-30 18:52:00,63.0,24.0,-100.00,WSW,248,8.0,24.0,22,0.00,,,0.00,134.000000,,2013-04-30 23:52:00,
2013-04-30 19:02:00,63.0,24.0,-100.00,WSW,248,8.0,24.0,22,0.00,,,0.00,134.000000,,2013-05-01 00:02:00,
2013-04-30 19:32:00,59.0,28.0,-100.00,WSW,257,9.0,22.0,30,0.00,,,-99.99,38.000000,,2013-05-01 00:32:00,
2013-04-30 19:42:00,59.0,28.0,-100.00,WSW,257,9.0,22.0,30,0.00,,,-99.99,38.000000,,2013-05-01 00:42:00,
2013-04-30 19:52:00,59.0,28.0,-100.00,WSW,257,9.0,22.0,30,0.00,,,-99.99,38.000000,,2013-05-01 00:52:00,
2013-04-30 20:01:00,59.0,28.0,-100.00,WSW,257,9.0,22.0,30,0.00,,,-99.99,38.000000,,2013-05-01 01:01:00,
2013-04-30 20:32:00,56.0,31.0,-100.00,WSW,255,9.0,17.0,39,0.00,,,-99.99,10.000000,,2013-05-01 01:32:00,
2013-04-30 20:42:00,56.0,31.0,-100.00,WSW,255,9.0,17.0,39,0.00,,,-99.99,10.000000,,2013-05-01 01:42:00,
2013-04-30 20:52:00,56.0,31.0,-100.00,WSW,255,9.0,17.0,39,0.00,,,-99.99,10.000000,,2013-05-01 01:52:00,
2013-04-30 21:02:00,56.0,31.0,-100.00,WSW,255,9.0,17.0,39,0.00,,,-99.99,10.000000,,2013-05-01 02:02:00,
2013-04-30 21:32:00,54.0,31.0,-100.00,West,261,8.0,20.0,42,0.00,,,-99.99,0.000000,,2013-05-01 02:32:00,
2013-04-30 21:42:00,54.0,31.0,-100.00,West,261,8.0,20.0,42,0.00,,,-99.99,0.000000,,2013-05-01 02:42:00,
2013-04-30 21:52:00,54.0,31.0,-100.00,West,261,8.0,20.0,42,0.00,,,-99.99,0.000000,,2013-05-01 02:52:00,
2013-04-30 22:02:00,54.0,31.0,-100.00,West,261,8.0,20.0,42,0.00,,,-99.99,0.000000,,2013-05-01 03:02:00,
2013-04-30 22:33:00,53.0,33.0,-100.00,West,264,7.0,16.0,47,0.00,,,-99.99,0.000000,,2013-05-01 03:33:00,
2013-04-30 22:43:00,53.0,33.0,-100.00,West,264,7.0,16.0,47,0.00,,,-99.99,0.000000,,2013-05-01 03:43:00,
2013-04-30 22:53:00,53.0,33.0,-100.00,West,264,7.0,16.0,47,0.00,,,-99.99,0.000000,,2013-05-01 03:53:00,
2013-04-30 23:03:00,53.0,33.0,-100.00,West,264,7.0,16.0,47,0.00,,,-99.99,0.000000,,2013-05-01 04:03:00,
2013-04-30 23:32:00,51.0,34.0,-100.00,West,276,5.0,12.0,53,0.00,,,-99.99,0.000000,,2013-05-01 04:32:00,
2013-04-30 23:43:00,51.0,34.0,-100.00,West,276,5.0,12.0,53,0.00,,,-99.99,0.000000,,2013-05-01 04:43:00,
2013-04-30 23:52:00,51.0,34.0,-100.00,West,276,5.0,12.0,53,0.00,,,-99.99,0.000000,,2013-05-01 04:52:00,